Time;durP1;ratioP1;P1;durP2;ratioP2;P2;SDS_P1;SDS_P2;PMS_P1;PMS_P2;Temp;Humidity;BMP_temperature;BMP_pressure;BME280_temperature;BME280_humidity;BME280_pressure;Samples;Min_cycle;Max_cycle;Signal;HPM_P1;HPM_P2
2021/10/17 00:00:40;;;;;;;;;8.00;8.00;;;;;14.99;49.86;101426.25;2091349;28;47336;-49
2021/10/17 00:01:41;;;;;;;;;9.00;8.00;;;;;14.98;49.95;101427.13;2083389;28;47611;-48
2021/10/17 00:02:43;;;;;;;;;8.67;7.33;;;;;14.99;49.69;101433.34;2083811;28;46843;-49
2021/10/17 00:03:43;;;;;;;;;9.75;9.25;;;;;14.98;49.86;101421.78;2083307;28;48727;-48
2021/10/17 00:04:43;;;;;;;;;9.33;9.33;;;;;14.98;50.27;101426.25;2083688;28;47367;-50
2021/10/17 00:05:44;;;;;;;;;11.67;11.00;;;;;14.98;50.22;101429.78;2092354;28;48117;-49
2021/10/17 00:06:44;;;;;;;;;11.00;9.67;;;;;14.98;50.31;101426.25;2092782;28;47772;-49
2021/10/17 00:07:46;;;;;;;;;9.00;8.00;;;;;14.99;50.31;101426.25;2083402;28;46743;-51
2021/10/17 00:08:46;;;;;;;;;9.25;9.25;;;;;14.99;49.86;101428.00;2083806;28;47317;-49
2021/10/17 00:09:47;;;;;;;;;11.50;10.75;;;;;14.97;49.64;101417.34;2083385;28;47054;-50
2021/10/17 00:10:47;;;;;;;;;12.00;10.00;;;;;14.98;49.96;101420.91;2081790;28;47101;-51
2021/10/17 00:11:48;;;;;;;;;11.67;11.67;;;;;14.97;50.03;101419.16;2092077;28;47323;-50
2021/10/17 00:12:48;;;;;;;;;9.50;9.25;;;;;14.96;49.95;101426.28;2092343;28;46234;-51
2021/10/17 00:13:50;;;;;;;;;11.33;10.67;;;;;14.96;49.89;101422.75;2092264;28;47531;-50
2021/10/17 00:14:51;;;;;;;;;10.25;10.00;;;;;14.96;50.47;101422.75;2092449;28;47253;-50
2021/10/17 00:15:51;;;;;;;;;10.50;10.50;;;;;14.95;50.04;101421.00;2083274;28;45307;-50
2021/10/17 00:16:52;;;;;;;;;10.50;10.50;;;;;14.93;50.14;101414.81;2083648;28;47385;-49
2021/10/17 00:17:53;;;;;;;;;10.00;10.00;;;;;14.91;50.33;101417.56;2091961;28;47453;-48
2021/10/17 00:18:54;;;;;;;;;10.75;9.25;;;;;14.90;50.50;101414.94;2092563;28;45413;-50
2021/10/17 00:19:54;;;;;;;;;16.00;12.75;;;;;14.90;50.04;101414.94;2092231;28;47244;-51
2021/10/17 00:20:55;;;;;;;;;10.00;10.00;;;;;14.88;50.06;101412.28;2092339;28;47285;-48
2021/10/17 00:21:55;;;;;;;;;11.33;10.67;;;;;14.88;50.33;101406.09;2087736;28;46293;-47
2021/10/17 00:22:56;;;;;;;;;12.00;10.67;;;;;14.87;50.65;101415.03;2088481;28;48449;-48
2021/10/17 00:23:57;;;;;;;;;9.50;9.25;;;;;14.87;50.33;101415.91;2092470;28;47228;-49
2021/10/17 00:24:58;;;;;;;;;11.00;9.67;;;;;14.85;50.09;101406.13;2092286;28;46106;-51
2021/10/17 00:25:58;;;;;;;;;14.00;12.25;;;;;14.83;50.31;101419.56;2092301;28;46662;-50
2021/10/17 00:26:59;;;;;;;;;14.00;11.50;;;;;14.83;50.16;101422.22;2092465;28;47165;-50
2021/10/17 00:28:00;;;;;;;;;11.00;11.00;;;;;14.84;50.14;101421.31;2091928;28;47430;-52
2021/10/17 00:29:00;;;;;;;;;10.67;10.00;;;;;14.82;50.63;101415.13;2083330;28;47777;-49
2021/10/17 00:30:02;;;;;;;;;14.75;12.50;;;;;14.82;50.21;101423.13;2083310;28;47375;-47
2021/10/17 00:31:02;;;;;;;;;12.00;12.00;;;;;14.82;50.15;101422.25;2080119;28;46900;-49
2021/10/17 00:32:03;;;;;;;;;14.00;13.00;;;;;14.80;50.42;101418.78;2083408;28;48154;-50
2021/10/17 00:33:03;;;;;;;;;16.00;13.75;;;;;14.80;50.44;101416.97;2092416;28;45241;-51
2021/10/17 00:34:04;;;;;;;;;13.67;11.00;;;;;14.79;50.52;101414.34;2092397;28;47495;-51
2021/10/17 00:35:06;;;;;;;;;13.00;12.00;;;;;14.78;50.67;101416.16;2092089;28;48045;-48
2021/10/17 00:36:07;;;;;;;;;14.00;13.00;;;;;14.79;50.48;101422.34;2092361;28;47422;-50
2021/10/17 00:37:08;;;;;;;;;13.67;11.00;;;;;14.78;50.63;101417.94;2082934;28;47614;-48
2021/10/17 00:38:08;;;;;;;;;12.75;12.75;;;;;14.76;50.61;101417.97;2087566;28;45356;-47
2021/10/17 00:39:08;;;;;;;;;14.75;14.75;;;;;14.76;50.49;101423.34;2092222;28;47314;-51
2021/10/17 00:40:13;;;;;;;;;10.50;10.50;;;;;14.77;50.61;101421.53;2092392;28;47028;-50
2021/10/17 00:41:15;;;;;;;;;11.60;11.60;;;;;14.75;50.46;101415.34;2095780;28;47714;-51
2021/10/17 00:42:16;;;;;;;;;11.60;11.60;;;;;14.76;50.16;101417.97;2093155;28;48329;-51
2021/10/17 00:43:17;;;;;;;;;11.20;11.20;;;;;14.76;50.37;101422.47;2089866;28;47565;-49
2021/10/17 00:44:21;;;;;;;;;6.50;6.50;;;;;14.76;50.69;101426.00;2088732;28;48197;-51
2021/10/17 00:45:30;;;;;;;;;13.50;12.50;;;;;14.76;50.42;101422.47;2091859;28;46626;-50
2021/10/17 00:46:30;;;;;;;;;11.20;11.20;;;;;14.75;50.39;101423.38;2079019;28;46910;-49
2021/10/17 00:47:31;;;;;;;;;10.50;10.50;;;;;14.74;50.39;101422.50;2083035;28;47045;-50
2021/10/17 00:48:31;;;;;;;;;13.50;13.00;;;;;14.74;50.60;101425.16;2092466;28;46025;-50
2021/10/17 00:49:32;;;;;;;;;12.67;12.00;;;;;14.73;50.47;101424.25;2083061;28;47788;-50
2021/10/17 00:50:33;;;;;;;;;16.25;14.25;;;;;14.73;50.28;101426.06;2078395;28;46907;-50
2021/10/17 00:51:34;;;;;;;;;12.75;12.00;;;;;14.72;50.64;101425.19;2087120;28;46604;-49
2021/10/17 00:52:36;;;;;;;;;17.40;15.60;;;;;14.72;50.81;101425.19;2092235;28;47388;-51
2021/10/17 00:53:37;;;;;;;;;10.40;9.60;;;;;14.72;50.45;101419.84;2082940;28;47228;-51
2021/10/17 00:54:37;;;;;;;;;13.00;11.00;;;;;14.72;50.39;101425.19;2083521;28;47051;-51
2021/10/17 00:55:37;;;;;;;;;11.75;11.25;;;;;14.73;50.64;101426.06;2089091;28;45287;-48
2021/10/17 00:56:40;;;;;;;;;11.00;11.00;;;;;14.73;50.47;101426.06;2083443;28;46839;-48
2021/10/17 00:57:42;;;;;;;;;11.60;11.60;;;;;14.72;50.44;101424.31;2074668;28;47285;-46
2021/10/17 00:58:43;;;;;;;;;11.40;11.20;;;;;14.71;50.60;101417.22;2079407;28;48344;-50
2021/10/17 00:59:45;;;;;;;;;12.75;12.75;;;;;14.71;50.33;101426.09;2092010;28;47078;-49
2021/10/17 01:00:46;;;;;;;;;11.80;11.80;;;;;14.70;50.63;101418.13;2092409;28;47538;-52
2021/10/17 01:01:46;;;;;;;;;13.50;13.50;;;;;14.68;50.52;101420.84;2082886;28;47006;-49
2021/10/17 01:02:46;;;;;;;;;11.00;11.00;;;;;14.67;50.45;101418.22;2083341;28;47172;-50
2021/10/17 01:03:47;;;;;;;;;11.75;11.75;;;;;14.66;50.83;101413.81;2091992;28;47717;-51
2021/10/17 01:04:48;;;;;;;;;14.00;13.00;;;;;14.65;50.71;101412.06;2092066;28;47123;-51
2021/10/17 01:05:50;;;;;;;;;15.00;14.75;;;;;14.64;51.01;101416.53;2091938;28;47337;-51
2021/10/17 01:06:50;;;;;;;;;19.80;14.80;;;;;14.63;50.80;101412.09;2083224;28;46389;-49
2021/10/17 01:07:51;;;;;;;;;13.75;13.75;;;;;14.62;51.07;101405.00;2082928;28;48302;-50
2021/10/17 01:08:51;;;;;;;;;19.25;18.00;;;;;14.63;50.93;101413.91;2092116;28;46747;-49
2021/10/17 01:09:52;;;;;;;;;16.50;16.00;;;;;14.61;50.66;101408.59;2091449;28;48692;-52
2021/10/17 01:10:55;;;;;;;;;17.00;16.00;;;;;14.60;51.08;101408.63;2092419;28;45312;-51
2021/10/17 01:11:55;;;;;;;;;15.60;14.80;;;;;14.61;51.15;101405.03;2091867;28;48122;-49
2021/10/17 01:12:56;;;;;;;;;15.75;15.75;;;;;14.58;51.14;101402.44;2091717;28;45750;-52
2021/10/17 01:13:56;;;;;;;;;17.00;16.00;;;;;14.58;50.94;101403.31;2083144;28;47750;-52
2021/10/17 01:14:57;;;;;;;;;17.75;17.75;;;;;14.56;51.00;101399.81;2083076;28;45704;-54
2021/10/17 01:15:58;;;;;;;;;15.25;13.25;;;;;14.57;51.29;101403.38;2089363;28;48131;-50
2021/10/17 01:16:58;;;;;;;;;17.25;16.00;;;;;14.59;51.17;101406.88;2092027;28;45152;-51
2021/10/17 01:17:59;;;;;;;;;16.50;15.25;;;;;14.57;51.51;101400.69;2091971;28;47294;-51
2021/10/17 01:19:00;;;;;;;;;15.00;15.00;;;;;14.57;51.43;101406.03;2083125;28;45398;-51
2021/10/17 01:20:00;;;;;;;;;18.50;16.00;;;;;14.57;51.63;101403.38;2083000;28;47469;-47
2021/10/17 01:21:01;;;;;;;;;20.25;16.50;;;;;14.58;51.64;101414.00;2091864;28;48213;-49
2021/10/17 01:22:04;;;;;;;;;14.50;13.25;;;;;14.57;51.40;101400.69;2086157;28;47134;-51
2021/10/17 01:23:05;;;;;;;;;16.20;13.80;;;;;14.56;51.80;101402.50;2089106;28;47010;-52
2021/10/17 01:24:07;;;;;;;;;16.50;14.50;;;;;14.56;51.41;101396.28;2092052;28;47328;-50
2021/10/17 01:25:09;;;;;;;;;16.60;16.00;;;;;14.56;51.56;101404.28;2091824;28;45097;-52
2021/10/17 01:26:10;;;;;;;;;17.20;15.40;;;;;14.56;51.62;101398.94;2083212;28;47090;-51
2021/10/17 01:27:11;;;;;;;;;15.80;15.80;;;;;14.55;51.91;101402.53;2082958;28;47035;-51
2021/10/17 01:28:12;;;;;;;;;15.75;15.25;;;;;14.55;51.70;101403.41;2091888;28;48560;-51
2021/10/17 01:29:14;;;;;;;;;18.80;15.80;;;;;14.55;52.05;101406.09;2091785;28;46317;-51
2021/10/17 01:30:16;;;;;;;;;13.60;13.60;;;;;14.55;51.93;101403.41;2092097;28;47333;-49
2021/10/17 01:31:17;;;;;;;;;11.60;11.60;;;;;14.55;51.82;101400.75;2091759;28;47651;-49
2021/10/17 01:32:17;;;;;;;;;18.25;17.00;;;;;14.55;52.13;101400.75;2091979;28;46998;-51
2021/10/17 01:33:18;;;;;;;;;16.00;16.00;;;;;14.57;52.10;101401.56;2091689;28;48157;-46
2021/10/17 01:34:20;;;;;;;;;20.80;17.80;;;;;14.58;51.82;101400.66;2083257;28;45336;-47
2021/10/17 01:35:21;;;;;;;;;17.00;16.60;;;;;14.57;52.05;101396.22;2082544;28;47292;-52
2021/10/17 01:36:21;;;;;;;;;17.00;16.00;;;;;14.59;51.96;101402.41;2089629;28;47207;-49
2021/10/17 01:37:22;;;;;;;;;15.75;15.25;;;;;14.58;51.95;101400.66;2092038;28;47875;-50
2021/10/17 01:38:22;;;;;;;;;16.00;15.75;;;;;14.59;52.23;101398.84;2095799;28;48522;-50
2021/10/17 01:39:24;;;;;;;;;15.25;15.25;;;;;14.59;52.27;101401.53;2091740;28;45677;-49
2021/10/17 01:40:25;;;;;;;;;13.20;13.20;;;;;14.58;52.49;101397.97;2092040;28;48448;-50
2021/10/17 01:41:26;;;;;;;;;14.00;14.00;;;;;14.58;52.44;101406.00;2086471;28;47124;-51
2021/10/17 01:42:26;;;;;;;;;17.25;16.75;;;;;14.57;51.94;101409.59;2085314;28;46007;-51
2021/10/17 01:43:27;;;;;;;;;16.25;14.75;;;;;14.56;52.46;101402.50;2087357;28;47074;-52
2021/10/17 01:44:31;;;;;;;;;16.00;15.80;;;;;14.58;52.05;101407.78;2089701;28;48298;-51
2021/10/17 01:45:31;;;;;;;;;19.40;18.80;;;;;14.57;52.30;101409.59;2090293;28;48263;-47
2021/10/17 01:46:33;;;;;;;;;16.75;16.00;;;;;14.57;52.43;101406.03;2087951;28;48175;-48
2021/10/17 01:47:34;;;;;;;;;20.80;19.00;;;;;14.55;52.31;101405.22;2091835;28;46446;-47
2021/10/17 01:48:34;;;;;;;;;15.00;13.25;;;;;14.55;52.62;101403.41;2091758;28;47795;-48
2021/10/17 01:49:36;;;;;;;;;19.25;18.25;;;;;14.55;52.20;101405.22;2091825;28;46773;-49
2021/10/17 01:50:37;;;;;;;;;16.60;14.80;;;;;14.54;52.45;101407.00;2091730;28;47410;-47
2021/10/17 01:51:38;;;;;;;;;15.80;15.80;;;;;14.54;52.19;101407.00;2091741;28;47983;-51
2021/10/17 01:52:39;;;;;;;;;25.75;21.25;;;;;14.54;52.45;101406.13;2091813;28;46210;-49
2021/10/17 01:53:39;;;;;;;;;19.80;17.60;;;;;14.55;52.32;101410.53;2091510;28;47669;-50
2021/10/17 01:54:40;;;;;;;;;16.25;16.00;;;;;14.54;52.25;101408.78;2091852;28;48695;-52
2021/10/17 01:55:41;;;;;;;;;21.50;20.50;;;;;14.53;52.50;101407.91;2091812;28;48504;-50
2021/10/17 01:56:41;;;;;;;;;13.00;10.75;;;;;14.53;52.23;101412.38;2091816;28;47103;-49
2021/10/17 01:57:42;;;;;;;;;17.00;16.00;;;;;14.52;52.39;101408.84;2091598;28;48233;-52
2021/10/17 01:58:42;;;;;;;;;19.00;16.50;;;;;14.53;52.34;101412.38;2082994;28;47470;-52
2021/10/17 01:59:43;;;;;;;;;16.00;15.00;;;;;14.52;52.66;101411.50;2082904;28;47415;-55
2021/10/17 02:00:43;;;;;;;;;17.75;17.50;;;;;14.53;52.61;101409.72;2091885;28;48237;-50
2021/10/17 02:01:44;;;;;;;;;18.00;17.75;;;;;14.53;52.50;101404.38;2091641;28;47153;-49
2021/10/17 02:02:45;;;;;;;;;19.00;19.00;;;;;14.53;52.16;101407.03;2082765;28;48537;-51
2021/10/17 02:03:45;;;;;;;;;18.50;18.25;;;;;14.51;52.43;101401.75;2082891;28;47061;-51
2021/10/17 02:04:45;;;;;;;;;17.50;16.50;;;;;14.52;52.57;101405.28;2089715;28;47209;-49
2021/10/17 02:05:46;;;;;;;;;16.75;16.75;;;;;14.50;52.37;101404.47;2082785;28;45339;-50
2021/10/17 02:06:46;;;;;;;;;17.50;17.50;;;;;14.50;52.25;101401.78;2082904;28;46951;-49
2021/10/17 02:07:47;;;;;;;;;20.50;20.50;;;;;14.48;52.34;101404.47;2082657;28;47455;-49
2021/10/17 02:08:47;;;;;;;;;19.50;18.50;;;;;14.47;52.43;101404.53;2082775;28;46200;-51
2021/10/17 02:09:48;;;;;;;;;25.75;22.50;;;;;14.45;52.32;101406.38;2091256;28;48061;-52
2021/10/17 02:10:48;;;;;;;;;18.00;17.50;;;;;14.44;52.34;101410.81;2074728;28;48030;-50
2021/10/17 02:11:49;;;;;;;;;19.50;19.00;;;;;14.41;52.60;101409.09;2073464;28;47226;-51
2021/10/17 02:12:49;;;;;;;;;17.75;17.75;;;;;14.42;52.49;101409.97;2086466;28;46906;-52
2021/10/17 02:13:50;;;;;;;;;21.00;20.25;;;;;14.39;52.45;101408.25;2082815;28;47012;-51
2021/10/17 02:14:51;;;;;;;;;20.25;20.25;;;;;14.39;52.65;101410.06;2082849;28;47318;-51
2021/10/17 02:15:51;;;;;;;;;20.75;19.00;;;;;14.38;52.56;101405.63;2073338;28;47080;-48
2021/10/17 02:16:52;;;;;;;;;24.50;24.00;;;;;14.38;52.71;101401.16;2074647;28;48584;-51
2021/10/17 02:17:52;;;;;;;;;20.75;19.75;;;;;14.36;52.65;101403.00;2091214;28;48369;-52
2021/10/17 02:18:53;;;;;;;;;19.25;18.50;;;;;14.35;52.53;101397.69;2083120;28;45558;-50
2021/10/17 02:19:53;;;;;;;;;21.25;21.00;;;;;14.33;52.76;101395.06;2074430;28;46524;-51
2021/10/17 02:20:54;;;;;;;;;20.75;20.00;;;;;14.33;52.43;101399.50;2082758;28;48070;-50
2021/10/17 02:21:54;;;;;;;;;21.25;19.75;;;;;14.31;52.69;101399.56;2085701;28;47040;-47
2021/10/17 02:22:55;;;;;;;;;22.25;22.00;;;;;14.30;52.61;101395.16;2087675;28;47051;-53
2021/10/17 02:23:55;;;;;;;;;23.50;21.00;;;;;14.28;52.60;101396.97;2082793;28;47479;-49
2021/10/17 02:24:56;;;;;;;;;23.00;22.25;;;;;14.28;52.68;101398.78;2082879;28;48630;-51
2021/10/17 02:25:56;;;;;;;;;21.75;21.75;;;;;14.26;52.72;101390.81;2082545;28;47194;-52
2021/10/17 02:26:57;;;;;;;;;19.50;19.50;;;;;14.25;52.66;101394.41;2082707;28;48074;-51
2021/10/17 02:27:57;;;;;;;;;17.75;17.75;;;;;14.24;52.74;101397.13;2091333;28;47166;-51
2021/10/17 02:28:58;;;;;;;;;19.75;19.75;;;;;14.23;52.96;101392.66;2091741;28;46581;-47
2021/10/17 02:29:58;;;;;;;;;22.50;21.00;;;;;14.22;52.78;101396.25;2091416;28;45382;-51
2021/10/17 02:30:59;;;;;;;;;23.00;21.00;;;;;14.20;52.83;101390.94;2091657;28;48018;-48
2021/10/17 02:31:59;;;;;;;;;18.50;18.50;;;;;14.19;53.01;101391.00;2091384;28;47199;-50
2021/10/17 02:33:00;;;;;;;;;21.00;18.25;;;;;14.18;53.04;101398.13;2091810;28;46716;-52
2021/10/17 02:34:00;;;;;;;;;22.50;20.25;;;;;14.18;53.02;101395.47;2091319;28;48328;-49
2021/10/17 02:35:02;;;;;;;;;19.25;19.25;;;;;14.15;53.03;101392.88;2082735;28;46792;-50
2021/10/17 02:36:03;;;;;;;;;21.60;20.80;;;;;14.13;52.98;101397.38;2082519;28;47509;-49
2021/10/17 02:37:03;;;;;;;;;17.25;17.00;;;;;14.11;53.06;101392.09;2091436;28;47279;-48
2021/10/17 02:38:04;;;;;;;;;21.50;20.75;;;;;14.11;53.11;101396.56;2087055;28;47338;-48
2021/10/17 02:39:05;;;;;;;;;20.00;20.00;;;;;14.10;52.99;101386.75;2082546;28;48200;-47
2021/10/17 02:40:06;;;;;;;;;25.00;22.75;;;;;14.09;53.37;101388.56;2079177;28;48309;-49
2021/10/17 02:41:07;;;;;;;;;21.20;20.40;;;;;14.09;53.16;101388.56;2086364;28;47972;-51
2021/10/17 02:42:07;;;;;;;;;22.00;20.50;;;;;14.09;53.08;101390.34;2082477;28;47367;-49
2021/10/17 02:43:08;;;;;;;;;17.25;17.25;;;;;14.08;53.67;101394.81;2083723;28;47491;-52
2021/10/17 02:44:08;;;;;;;;;21.50;20.50;;;;;14.07;53.26;101390.38;2086795;28;46304;-50
2021/10/17 02:45:09;;;;;;;;;22.25;22.25;;;;;14.07;53.37;101393.06;2082489;28;45153;-51
2021/10/17 02:46:10;;;;;;;;;23.00;21.25;;;;;14.06;53.28;101399.31;2080589;28;48412;-49
2021/10/17 02:47:10;;;;;;;;;20.75;19.75;;;;;14.05;53.58;101391.34;2090276;28;48145;-50
2021/10/17 02:48:11;;;;;;;;;21.50;19.00;;;;;14.05;53.25;101394.03;2091541;28;47860;-52
2021/10/17 02:49:11;;;;;;;;;23.75;21.25;;;;;14.03;53.64;101396.72;2091271;28;46838;-51
2021/10/17 02:50:12;;;;;;;;;16.50;16.50;;;;;14.02;53.60;101386.09;2091504;28;46343;-50
2021/10/17 02:51:12;;;;;;;;;20.50;19.25;;;;;14.01;53.58;101393.22;2091397;28;47229;-51
2021/10/17 02:52:13;;;;;;;;;21.75;19.50;;;;;13.99;53.65;101389.72;2091377;28;47442;-48
2021/10/17 02:53:13;;;;;;;;;25.00;21.50;;;;;13.99;53.56;101394.19;2091167;28;48259;-47
2021/10/17 02:54:15;;;;;;;;;22.25;21.25;;;;;13.99;53.54;101394.19;2091592;28;47431;-49
2021/10/17 02:55:16;;;;;;;;;20.00;20.00;;;;;13.97;53.55;101396.00;2091138;28;47371;-51
2021/10/17 02:56:16;;;;;;;;;18.50;18.50;;;;;13.96;53.70;101389.78;2091786;28;47727;-50
2021/10/17 02:57:17;;;;;;;;;20.00;19.25;;;;;13.94;53.50;101386.28;2091027;28;47287;-47
2021/10/17 02:58:17;;;;;;;;;22.50;21.00;;;;;13.94;53.82;101390.75;2091571;28;47150;-49
2021/10/17 02:59:18;;;;;;;;;21.75;21.75;;;;;13.95;53.69;101387.16;2074143;28;48451;-47
2021/10/17 03:00:18;;;;;;;;;21.75;21.50;;;;;13.94;53.63;101382.72;2074330;28;47761;-49
2021/10/17 03:01:19;;;;;;;;;22.75;21.25;;;;;13.95;53.89;101380.03;2082234;28;47977;-53
2021/10/17 03:02:19;;;;;;;;;21.75;19.50;;;;;13.94;53.73;101380.06;2082501;28;47411;-51
2021/10/17 03:03:20;;;;;;;;;26.25;19.75;;;;;13.95;53.98;101385.34;2091169;28;46950;-49
2021/10/17 03:04:20;;;;;;;;;20.50;19.50;;;;;13.94;53.79;101383.59;2091502;28;47496;-49
2021/10/17 03:05:21;;;;;;;;;25.25;23.00;;;;;13.94;54.10;101375.59;2091172;28;48389;-47
2021/10/17 03:06:25;;;;;;;;;20.75;20.75;;;;;13.94;53.97;101377.41;2082503;28;47039;-53
2021/10/17 03:07:26;;;;;;;;;14.80;11.00;;;;;13.94;53.94;101372.06;2082593;28;47693;-48
2021/10/17 03:08:26;;;;;;;;;20.75;20.25;;;;;13.94;53.72;101378.28;2091435;28;48232;-49
2021/10/17 03:09:27;;;;;;;;;21.50;19.25;;;;;13.94;53.93;101380.06;2091100;28;47257;-49
2021/10/17 03:10:27;;;;;;;;;17.75;17.50;;;;;13.93;54.01;101383.66;2082542;28;48255;-49
2021/10/17 03:11:28;;;;;;;;;21.50;21.50;;;;;13.93;53.81;101379.19;2082158;28;47443;-51
2021/10/17 03:12:28;;;;;;;;;25.75;22.25;;;;;13.92;53.82;101379.22;2091333;28;48284;-51
2021/10/17 03:13:29;;;;;;;;;27.25;22.50;;;;;13.91;54.11;101375.69;2091031;28;48500;-50
2021/10/17 03:14:29;;;;;;;;;20.75;20.75;;;;;13.90;54.09;101373.94;2091244;28;47390;-48
2021/10/17 03:15:30;;;;;;;;;24.75;23.00;;;;;13.91;53.95;101378.34;2089898;28;48296;-48
2021/10/17 03:16:30;;;;;;;;;24.25;21.25;;;;;13.91;53.94;101377.47;2091420;28;46977;-53
2021/10/17 03:17:31;;;;;;;;;22.50;21.50;;;;;13.91;53.99;101383.69;2091209;28;46093;-49
2021/10/17 03:18:31;;;;;;;;;22.75;22.50;;;;;13.90;54.14;101381.06;2091506;28;47235;-49
2021/10/17 03:19:33;;;;;;;;;21.00;21.00;;;;;13.90;54.02;101381.06;2077018;28;47150;-51
2021/10/17 03:20:33;;;;;;;;;22.60;21.00;;;;;13.90;53.97;101383.72;2082425;28;47953;-47
2021/10/17 03:21:34;;;;;;;;;21.75;21.75;;;;;13.88;53.98;101380.22;2088784;28;47202;-50
2021/10/17 03:22:34;;;;;;;;;22.50;20.50;;;;;13.88;54.06;101381.09;2076095;28;48740;-52
2021/10/17 03:23:35;;;;;;;;;20.00;15.25;;;;;13.88;53.88;101382.91;2082299;28;47111;-48
2021/10/17 03:24:35;;;;;;;;;22.25;22.25;;;;;13.87;54.21;101382.03;2091237;28;46837;-47
2021/10/17 03:25:35;;;;;;;;;23.50;22.50;;;;;13.86;54.04;101372.28;2091062;28;48017;-50
2021/10/17 03:26:36;;;;;;;;;22.00;21.00;;;;;13.84;54.15;101374.94;2091186;28;47192;-49
2021/10/17 03:27:37;;;;;;;;;20.00;18.50;;;;;13.83;54.11;101378.53;2090976;28;47053;-49
2021/10/17 03:28:37;;;;;;;;;23.25;22.75;;;;;13.81;54.27;101383.03;2091238;28;47171;-50
2021/10/17 03:29:38;;;;;;;;;25.25;21.75;;;;;13.81;54.13;101377.69;2091034;28;48221;-50
2021/10/17 03:30:38;;;;;;;;;22.75;21.50;;;;;13.80;54.28;101377.75;2091217;28;47051;-49
2021/10/17 03:31:39;;;;;;;;;25.00;25.00;;;;;13.79;54.08;101374.19;2091179;28;48536;-52
2021/10/17 03:32:40;;;;;;;;;27.50;21.75;;;;;13.79;54.27;101378.66;2091165;28;45583;-52
2021/10/17 03:33:40;;;;;;;;;28.50;22.25;;;;;13.78;54.25;101380.44;2092420;28;48316;-52
2021/10/17 03:34:41;;;;;;;;;21.25;21.00;;;;;13.79;54.33;101379.53;2083601;28;48080;-51
2021/10/17 03:35:41;;;;;;;;;25.00;23.75;;;;;13.79;54.38;101373.31;2083604;28;48102;-52
2021/10/17 03:36:42;;;;;;;;;23.75;22.75;;;;;13.77;54.49;101380.50;2092668;28;47429;-48
2021/10/17 03:37:42;;;;;;;;;23.25;22.00;;;;;13.76;54.49;101371.59;2095932;28;45671;-52
2021/10/17 03:38:43;;;;;;;;;23.00;22.00;;;;;13.76;54.40;101374.28;2093692;28;47300;-49
2021/10/17 03:39:43;;;;;;;;;33.25;30.50;;;;;13.76;54.43;101373.41;2083659;28;47577;-49
2021/10/17 03:40:44;;;;;;;;;26.75;25.25;;;;;13.77;54.55;101372.47;2085610;28;46338;-52
2021/10/17 03:41:44;;;;;;;;;24.00;23.25;;;;;13.77;54.39;101369.81;2094680;28;45512;-49
2021/10/17 03:42:44;;;;;;;;;23.00;23.00;;;;;13.76;54.30;101366.28;2096668;28;48117;-51
2021/10/17 03:43:45;;;;;;;;;23.25;22.50;;;;;13.75;54.44;101361.84;2075856;28;48287;-48
2021/10/17 03:44:46;;;;;;;;;22.25;18.50;;;;;13.75;54.38;101358.31;2083661;28;47150;-50
2021/10/17 03:45:46;;;;;;;;;22.50;22.50;;;;;13.73;54.58;101353.03;2081474;28;47258;-49
2021/10/17 03:46:47;;;;;;;;;22.75;20.50;;;;;13.75;54.39;101355.66;2080656;28;46990;-51
2021/10/17 03:47:47;;;;;;;;;24.75;24.50;;;;;13.72;54.59;101353.94;2083520;28;47283;-50
2021/10/17 03:48:48;;;;;;;;;24.00;22.75;;;;;13.71;54.21;101349.47;2083767;28;46951;-49
2021/10/17 03:49:48;;;;;;;;;25.00;25.00;;;;;13.70;54.43;101347.75;2086628;28;47854;-52
2021/10/17 03:50:49;;;;;;;;;24.50;23.25;;;;;13.70;54.55;101347.75;2083998;28;48090;-52
2021/10/17 03:51:49;;;;;;;;;25.25;23.75;;;;;13.70;54.69;101347.75;2083456;28;46974;-51
2021/10/17 03:52:50;;;;;;;;;22.75;22.75;;;;;13.70;54.68;101355.75;2092666;28;45712;-48
2021/10/17 03:53:50;;;;;;;;;22.50;22.25;;;;;13.70;54.70;101350.41;2092273;28;48177;-51
2021/10/17 03:54:51;;;;;;;;;18.50;18.50;;;;;13.70;54.71;101360.19;2083784;28;48083;-49
2021/10/17 03:55:52;;;;;;;;;23.00;21.75;;;;;13.69;54.50;101356.66;2083487;28;47447;-49
2021/10/17 03:56:52;;;;;;;;;20.25;19.25;;;;;13.69;54.58;101353.13;2092569;28;47030;-49
2021/10/17 03:57:53;;;;;;;;;19.75;17.75;;;;;13.68;54.51;101354.03;2092168;28;48153;-49
2021/10/17 03:58:53;;;;;;;;;26.00;23.75;;;;;13.68;54.68;101359.38;2092733;28;47568;-50
2021/10/17 03:59:53;;;;;;;;;22.50;22.50;;;;;13.68;54.74;101354.91;2092333;28;47604;-48
2021/10/17 04:00:54;;;;;;;;;18.50;18.25;;;;;13.68;54.73;101362.03;2091313;28;47704;-48
2021/10/17 04:01:54;;;;;;;;;24.75;24.25;;;;;13.68;54.59;101360.25;2092238;28;47055;-47
2021/10/17 04:02:55;;;;;;;;;23.50;22.00;;;;;13.68;54.55;101356.69;2083433;28;48165;-52
2021/10/17 04:03:56;;;;;;;;;22.25;18.75;;;;;13.68;54.64;101364.69;2083191;28;46816;-49
2021/10/17 04:04:56;;;;;;;;;21.80;20.40;;;;;13.68;54.73;101359.38;2092433;28;47238;-50
2021/10/17 04:05:57;;;;;;;;;20.50;20.25;;;;;13.67;54.73;101362.94;2083111;28;47212;-47
2021/10/17 04:06:57;;;;;;;;;23.25;22.75;;;;;13.66;54.66;101359.41;2083557;28;47481;-50
2021/10/17 04:07:58;;;;;;;;;20.50;20.50;;;;;13.65;54.82;101363.00;2089606;28;47319;-49
2021/10/17 04:08:58;;;;;;;;;21.75;19.00;;;;;13.65;54.79;101363.00;2083508;28;47263;-47
2021/10/17 04:09:59;;;;;;;;;20.50;20.00;;;;;13.63;54.74;101362.16;2083297;28;47628;-49
2021/10/17 04:10:59;;;;;;;;;12.75;12.75;;;;;13.63;55.00;101361.28;2083682;28;47277;-48
2021/10/17 04:12:00;;;;;;;;;16.25;16.25;;;;;13.62;54.93;101367.53;2083211;28;46524;-48
2021/10/17 04:13:00;;;;;;;;;24.25;22.75;;;;;13.61;54.75;101360.44;2081399;28;47146;-47
2021/10/17 04:14:01;;;;;;;;;22.00;20.25;;;;;13.60;54.92;101362.22;2079555;28;47180;-48
2021/10/17 04:15:02;;;;;;;;;20.75;20.75;;;;;13.59;54.80;101362.25;2092279;28;48873;-47
2021/10/17 04:16:03;;;;;;;;;19.00;18.20;;;;;13.59;54.82;101362.25;2091297;28;47165;-50
2021/10/17 04:17:04;;;;;;;;;20.75;19.00;;;;;13.58;55.18;101358.69;2092511;28;47189;-48
2021/10/17 04:18:05;;;;;;;;;20.50;18.75;;;;;13.55;54.94;101359.66;2078851;28;46978;-49
2021/10/17 04:19:05;;;;;;;;;19.60;16.60;;;;;13.54;54.81;101354.38;2075189;28;47449;-49
2021/10/17 04:20:08;;;;;;;;;18.25;17.50;;;;;13.53;55.10;101358.81;2083784;28;47188;-48
2021/10/17 04:21:08;;;;;;;;;19.40;19.40;;;;;13.52;55.05;101353.53;2084631;28;47355;-47
2021/10/17 04:22:08;;;;;;;;;18.50;17.50;;;;;13.51;54.97;101357.09;2086097;28;47328;-46
2021/10/17 04:23:09;;;;;;;;;20.50;20.50;;;;;13.50;55.10;101356.22;2087821;28;47947;-49
2021/10/17 04:24:09;;;;;;;;;19.25;16.25;;;;;13.51;55.29;101357.97;2092467;28;46053;-49
2021/10/17 04:25:10;;;;;;;;;18.50;18.50;;;;;13.50;55.26;101353.56;2092150;28;45338;-51
2021/10/17 04:26:10;;;;;;;;;18.00;17.50;;;;;13.50;55.31;101353.56;2083476;28;48141;-51
2021/10/17 04:27:12;;;;;;;;;21.25;18.75;;;;;13.50;54.98;101348.25;2083037;28;46973;-48
2021/10/17 04:28:13;;;;;;;;;20.60;20.20;;;;;13.49;55.17;101351.81;2092522;28;47118;-50
2021/10/17 04:29:13;;;;;;;;;23.25;22.25;;;;;13.50;55.26;101350.91;2092174;28;47353;-50
2021/10/17 04:30:15;;;;;;;;;19.50;18.25;;;;;13.51;55.12;101352.66;2092426;28;48287;-50
2021/10/17 04:31:15;;;;;;;;;23.00;23.00;;;;;13.52;55.17;101354.41;2092140;28;47800;-53
2021/10/17 04:32:16;;;;;;;;;22.75;18.00;;;;;13.52;55.07;101349.06;2092460;28;48373;-47
2021/10/17 04:33:16;;;;;;;;;19.75;19.50;;;;;13.53;55.13;101350.81;2092166;28;48222;-50
2021/10/17 04:34:17;;;;;;;;;20.00;18.00;;;;;13.55;55.24;101346.31;2083647;28;47252;-50
2021/10/17 04:35:17;;;;;;;;;20.75;20.50;;;;;13.55;55.35;101348.13;2083246;28;47254;-50
2021/10/17 04:36:18;;;;;;;;;18.25;17.50;;;;;13.57;55.35;101350.75;2085387;28;47411;-49